TimeCDT,TemperatureF,Dew PointF,Humidity,Sea Level PressureIn,VisibilityMPH,Wind Direction,Wind SpeedMPH,Gust SpeedMPH,PrecipitationIn,Events,Conditions,WindDirDegrees,DateUTC
12:55 AM,48.4,46.9,95,29.89,2.5,SSE,10.4,-,0.02,Thunderstorm,Overcast,160,2012-10-13 05:55:00
1:55 AM,48.4,46.9,95,29.88,4.0,South,6.9,-,0.06,Rain-Thunderstorm,Rain,170,2012-10-13 06:55:00
2:15 AM,48.6,47.3,95,29.87,7.0,SSE,9.2,-,0.02,Rain-Thunderstorm,Rain,160,2012-10-13 07:15:00
2:35 AM,49.5,48.2,95,29.83,5.0,South,13.8,20.7,0.11,Rain,Rain,170,2012-10-13 07:35:00
2:55 AM,50.9,49.5,95,29.83,7.0,South,16.1,-,0.18,Rain,Rain,180,2012-10-13 07:55:00
3:15 AM,51.3,50.0,95,29.81,10.0,South,11.5,20.7,0.01,,Overcast,180,2012-10-13 08:15:00
3:35 AM,51.3,50.0,95,29.81,10.0,SW,8.1,-,0.01,,Overcast,230,2012-10-13 08:35:00
3:55 AM,50.9,49.5,95,29.79,10.0,SSW,9.2,-,0.01,,Overcast,200,2012-10-13 08:55:00
4:15 AM,50.9,49.3,94,29.80,10.0,South,11.5,-,N/A,,Overcast,190,2012-10-13 09:15:00
4:35 AM,50.9,49.5,95,29.81,10.0,SSW,10.4,18.4,N/A,,Overcast,210,2012-10-13 09:35:00
4:55 AM,50.9,49.5,95,29.82,7.0,SSW,10.4,-,N/A,,Overcast,210,2012-10-13 09:55:00
5:15 AM,50.9,49.5,95,29.81,0.8,SSW,13.8,-,N/A,,Overcast,200,2012-10-13 10:15:00
5:35 AM,50.9,49.5,95,29.81,0.5,SSW,13.8,-,N/A,Fog,Fog,200,2012-10-13 10:35:00
5:55 AM,51.4,50.2,95,29.80,0.8,SSW,13.8,-,N/A,,Overcast,200,2012-10-13 10:55:00
6:15 AM,51.8,50.9,97,29.80,1.5,SSW,12.7,16.1,N/A,,Overcast,210,2012-10-13 11:15:00
6:35 AM,52.3,51.3,96,29.79,1.8,SSW,12.7,17.3,N/A,,Overcast,210,2012-10-13 11:35:00
6:55 AM,52.7,51.8,97,29.79,2.0,SSW,16.1,-,N/A,,Overcast,210,2012-10-13 11:55:00
7:15 AM,52.7,51.8,97,29.78,1.2,SSW,13.8,-,N/A,,Overcast,210,2012-10-13 12:15:00
7:35 AM,52.7,51.6,96,29.78,2.0,SSW,12.7,17.3,N/A,,Overcast,200,2012-10-13 12:35:00
7:55 AM,53.8,52.9,97,29.77,4.0,SSW,13.8,19.6,N/A,,Overcast,210,2012-10-13 12:55:00
8:15 AM,54.0,52.9,96,29.76,4.0,SSW,15.0,19.6,N/A,,Overcast,210,2012-10-13 13:15:00
8:55 AM,54.9,53.8,96,29.76,2.0,SSW,13.8,19.6,N/A,,Overcast,210,2012-10-13 13:55:00
9:35 AM,56.1,54.7,95,29.76,5.0,SW,11.5,-,N/A,,Mostly Cloudy,220,2012-10-13 14:35:00
9:55 AM,57.4,54.7,91,29.75,10.0,SW,12.7,-,N/A,,Scattered Clouds,230,2012-10-13 14:55:00
10:15 AM,58.3,54.5,87,29.75,10.0,SW,11.5,16.1,N/A,,Clear,230,2012-10-13 15:15:00
10:35 AM,59.2,54.1,83,29.76,10.0,SW,9.2,-,N/A,,Clear,220,2012-10-13 15:35:00
10:55 AM,60.1,54.0,80,29.75,10.0,SW,9.2,-,N/A,,Clear,230,2012-10-13 15:55:00
11:15 AM,61.0,53.4,76,29.73,10.0,WSW,9.2,-,N/A,,Clear,240,2012-10-13 16:15:00
11:35 AM,62.1,53.6,74,29.72,10.0,SW,8.1,-,N/A,,Clear,220,2012-10-13 16:35:00
11:55 AM,63.3,53.6,71,29.71,10.0,West,8.1,-,N/A,,Clear,260,2012-10-13 16:55:00
12:15 PM,64.4,52.9,66,29.71,10.0,West,8.1,-,N/A,,Clear,260,2012-10-13 17:15:00
12:35 PM,65.7,52.9,63,29.71,10.0,SSW,4.6,-,N/A,,Clear,210,2012-10-13 17:35:00
12:55 PM,67.1,52.5,59,29.71,10.0,SSW,8.1,-,N/A,,Clear,200,2012-10-13 17:55:00
1:15 PM,67.5,52.0,58,29.70,10.0,South,3.5,-,N/A,,Clear,180,2012-10-13 18:15:00
1:35 PM,68.4,52.3,57,29.70,10.0,SW,6.9,-,N/A,,Clear,220,2012-10-13 18:35:00
1:55 PM,70.2,51.4,51,29.69,10.0,SSE,5.8,-,N/A,,Clear,150,2012-10-13 18:55:00
2:15 PM,70.9,51.1,49,29.69,10.0,South,6.9,-,N/A,,Clear,170,2012-10-13 19:15:00
2:35 PM,71.6,51.3,49,29.67,10.0,South,6.9,-,N/A,,Clear,180,2012-10-13 19:35:00
2:55 PM,73.0,50.0,44,29.67,10.0,South,8.1,-,N/A,,Clear,190,2012-10-13 19:55:00
3:35 PM,73.8,49.3,42,29.66,10.0,SSE,8.1,-,N/A,,Clear,150,2012-10-13 20:35:00
3:55 PM,74.1,48.4,40,29.66,10.0,SSE,10.4,-,N/A,,Clear,150,2012-10-13 20:55:00
4:15 PM,74.5,48.0,39,29.66,10.0,South,6.9,-,N/A,,Clear,170,2012-10-13 21:15:00
4:35 PM,74.5,47.8,39,29.64,10.0,South,9.2,-,N/A,,Clear,170,2012-10-13 21:35:00
4:55 PM,74.5,47.3,38,29.63,10.0,SE,10.4,-,N/A,,Clear,140,2012-10-13 21:55:00
5:15 PM,74.5,46.2,37,29.63,10.0,SSE,9.2,-,N/A,,Clear,150,2012-10-13 22:15:00
5:35 PM,73.8,46.9,38,29.62,10.0,SSE,9.2,-,N/A,,Clear,160,2012-10-13 22:35:00
5:55 PM,73.6,48.6,41,29.62,10.0,SSE,5.8,-,N/A,,Clear,160,2012-10-13 22:55:00
6:15 PM,72.3,48.6,43,29.62,10.0,South,4.6,-,N/A,,Clear,190,2012-10-13 23:15:00
6:35 PM,70.0,50.0,49,29.62,10.0,SW,4.6,-,N/A,,Clear,220,2012-10-13 23:35:00
7:35 PM,59.4,48.9,68,29.64,10.0,WSW,4.6,-,N/A,,Clear,250,2012-10-14 00:35:00
7:55 PM,60.1,50.0,69,29.63,10.0,WSW,3.5,-,N/A,,Scattered Clouds,250,2012-10-14 00:55:00
8:15 PM,60.3,49.5,68,29.63,10.0,Calm,Calm,-,N/A,,Mostly Cloudy,0,2012-10-14 01:15:00
8:55 PM,58.1,48.7,71,29.63,10.0,WNW,5.8,-,N/A,,Clear,290,2012-10-14 01:55:00
9:15 PM,63.5,46.0,53,29.69,10.0,NNW,24.2,38.0,N/A,,Mostly Cloudy,330,2012-10-14 02:15:00
9:35 PM,57.2,49.1,74,29.72,3.0,NNW,29.9,39.1,0.17,Rain-Thunderstorm,Heavy Thunderstorms and Rain,340,2012-10-14 02:35:00
9:55 PM,56.8,49.1,75,29.75,10.0,North,18.4,23.0,0.26,Rain-Thunderstorm,Thunderstorms and Rain,350,2012-10-14 02:55:00
10:15 PM,56.5,47.7,72,29.75,10.0,WNW,6.9,-,0.11,Rain-Thunderstorm,Light Thunderstorms and Rain,300,2012-10-14 03:15:00
11:15 PM,57.2,46.9,69,29.75,10.0,NNW,9.2,-,N/A,Thunderstorm,Thunderstorm,330,2012-10-14 04:15:00
11:35 PM,55.6,46.0,70,29.76,10.0,NNW,12.7,-,N/A,,Clear,340,2012-10-14 04:35:00